createdAt,value
2023-05-08T00:00:59.612Z,9.75
2023-05-08T00:03:27.137Z,10.47
2023-05-08T00:05:57.093Z,11.60
2023-05-08T00:08:23.780Z,10.35
2023-05-08T00:10:50.741Z,10.85
2023-05-08T00:13:17.466Z,13.38
2023-05-08T00:15:44.198Z,20.90
2023-05-08T00:18:10.890Z,14.57
2023-05-08T00:20:37.997Z,13.70
2023-05-08T00:23:05.043Z,13.80
2023-05-08T00:25:32.141Z,10.40
2023-05-08T00:27:59.458Z,13.73
2023-05-08T00:30:26.781Z,10.23
2023-05-08T00:32:53.876Z,10.30
2023-05-08T00:35:22.599Z,12.23
2023-05-08T00:37:49.279Z,11.82
2023-05-08T00:40:16.109Z,12.25
2023-05-08T00:42:42.880Z,12.20
2023-05-08T00:45:09.991Z,9.10
2023-05-08T00:47:36.852Z,9.50
2023-05-08T00:50:03.862Z,8.32
2023-05-08T00:52:33.117Z,8.18
2023-05-08T00:55:02.422Z,9.88
2023-05-08T00:57:32.497Z,9.32
2023-05-08T01:00:02.015Z,10.32
2023-05-08T01:02:31.709Z,11.85
2023-05-08T01:04:59.112Z,12.77
2023-05-08T01:07:26.022Z,10.52
2023-05-08T01:09:53.263Z,9.93
2023-05-08T01:12:47.150Z,9.63
2023-05-08T01:15:44.018Z,9.25
2023-05-08T01:18:18.366Z,8.40
2023-05-08T01:21:13.471Z,10.57
2023-05-08T01:24:11.954Z,8.25
2023-05-08T01:26:53.703Z,9.15
2023-05-08T01:29:20.278Z,9.85
2023-05-08T01:32:10.179Z,8.70
2023-05-08T01:34:44.757Z,7.88
2023-05-08T01:37:27.708Z,7.50
2023-05-08T01:40:40.558Z,8.73
2023-05-08T01:43:30.049Z,8.77
2023-05-08T01:45:59.412Z,7.30
2023-05-08T01:48:34.227Z,9.20
2023-05-08T01:51:08.552Z,7.72
2023-05-08T01:53:41.223Z,9.05
2023-05-08T01:56:14.508Z,8.32
2023-05-08T01:58:42.987Z,7.55
2023-05-08T02:01:12.873Z,8.45
2023-05-08T02:03:43.359Z,8.95
2023-05-08T02:06:12.961Z,9.13
2023-05-08T02:08:41.689Z,10.75
2023-05-08T02:11:11.633Z,10.25
2023-05-08T02:13:39.239Z,14.27
2023-05-08T02:16:08.340Z,13.02
2023-05-08T02:18:37.564Z,8.43
2023-05-08T02:21:06.235Z,7.82
2023-05-08T02:23:34.691Z,12.18
2023-05-08T02:26:04.695Z,9.65
2023-05-08T02:28:33.449Z,8.43
2023-05-08T02:31:01.412Z,9.68
2023-05-08T02:33:30.085Z,8.95
2023-05-08T02:35:57.899Z,8.80
2023-05-08T02:38:26.347Z,7.93
2023-05-08T02:41:00.962Z,9.77
2023-05-08T02:43:28.263Z,8.98
2023-05-08T02:46:03.814Z,8.20
2023-05-08T02:48:38.333Z,10.10
2023-05-08T02:51:16.954Z,9.82
2023-05-08T02:53:53.092Z,8.27
2023-05-08T02:56:39.213Z,9.35
2023-05-08T02:59:23.027Z,9.60
2023-05-08T03:01:54.336Z,13.68
2023-05-08T03:04:37.842Z,9.98
2023-05-08T03:07:05.977Z,8.80
2023-05-08T03:09:48.986Z,11.93
2023-05-08T03:12:20.862Z,9.70
2023-05-08T03:15:00.214Z,10.05
2023-05-08T03:17:28.814Z,9.75
2023-05-08T03:20:00.948Z,11.55
2023-05-08T03:22:30.361Z,10.60
2023-05-08T03:24:59.838Z,13.68
2023-05-08T03:27:29.476Z,15.30
2023-05-08T03:29:58.047Z,16.08
2023-05-08T03:32:27.559Z,13.60
2023-05-08T03:34:58.686Z,15.73
2023-05-08T03:37:27.594Z,15.25
2023-05-08T03:39:55.963Z,15.30
2023-05-08T03:42:24.431Z,12.45
2023-05-08T03:44:52.340Z,13.57
2023-05-08T03:47:21.084Z,14.18
2023-05-08T03:49:49.270Z,11.68
2023-05-08T03:52:16.487Z,12.30
2023-05-08T03:54:43.505Z,13.63
2023-05-08T03:57:11.306Z,14.05
2023-05-08T03:59:49.924Z,13.63
2023-05-08T04:02:34.845Z,14.55
2023-05-08T04:05:21.011Z,13.48
2023-05-08T04:07:54.908Z,15.35
2023-05-08T04:10:34.046Z,14.52
2023-05-08T04:13:27.357Z,15.35
2023-05-08T04:16:27.851Z,14.52
2023-05-08T04:19:01.248Z,20.10
2023-05-08T04:21:29.872Z,17.80
2023-05-08T04:23:58.442Z,18.50
2023-05-08T04:26:25.351Z,18.77
2023-05-08T04:28:53.064Z,17.85
2023-05-08T04:31:20.015Z,19.75
2023-05-08T04:33:47.351Z,18.20
2023-05-08T04:36:14.582Z,21.88
2023-05-08T04:38:41.741Z,21.67
2023-05-08T04:41:09.084Z,23.88
2023-05-08T04:43:36.829Z,24.77
2023-05-08T04:46:05.843Z,26.10
2023-05-08T04:48:34.027Z,23.50
2023-05-08T04:51:01.100Z,19.83
2023-05-08T04:53:27.855Z,18.23
2023-05-08T04:55:54.591Z,19.38
2023-05-08T04:58:21.322Z,17.45
2023-05-08T05:00:48.806Z,20.23
2023-05-08T05:03:15.714Z,20.63
2023-05-08T05:05:42.677Z,16.38
2023-05-08T05:08:09.354Z,18.17
2023-05-08T05:10:36.226Z,14.82
2023-05-08T05:13:02.930Z,19.40
2023-05-08T05:15:29.642Z,21.17
2023-05-08T05:17:56.537Z,21.63
2023-05-08T05:20:23.277Z,23.20
2023-05-08T05:22:50.388Z,30.40
2023-05-08T05:25:17.157Z,23.33
2023-05-08T05:27:44.328Z,28.70
2023-05-08T05:30:12.631Z,22.65
2023-05-08T05:32:39.668Z,14.63
2023-05-08T05:35:06.957Z,13.88
2023-05-08T05:37:34.130Z,14.30
2023-05-08T05:40:00.952Z,12.25
2023-05-08T05:42:28.234Z,14.50
2023-05-08T05:44:56.766Z,12.93
2023-05-08T05:47:23.664Z,12.77
2023-05-08T05:49:50.427Z,11.82
2023-05-08T05:52:17.108Z,9.48
2023-05-08T05:54:43.815Z,11.07
2023-05-08T05:57:10.510Z,11.48
2023-05-08T05:59:37.476Z,11.40
2023-05-08T06:02:04.239Z,11.07
2023-05-08T06:04:31.713Z,13.05
2023-05-08T06:06:58.481Z,11.45
2023-05-08T06:09:25.329Z,11.40
2023-05-08T06:11:52.039Z,13.25
2023-05-08T06:14:20.429Z,13.38
2023-05-08T06:16:47.142Z,11.35
2023-05-08T06:19:13.890Z,11.75
2023-05-08T06:21:40.594Z,10.07
2023-05-08T06:24:07.911Z,10.90
2023-05-08T06:26:35.081Z,10.63
2023-05-08T06:29:01.893Z,11.20
2023-05-08T06:31:29.171Z,8.50
2023-05-08T06:33:56.202Z,10.85
2023-05-08T06:36:22.990Z,9.95
2023-05-08T06:38:49.644Z,7.60
2023-05-08T06:41:16.686Z,9.50
2023-05-08T06:43:43.325Z,8.90
2023-05-08T06:46:10.133Z,8.93
2023-05-08T06:48:36.882Z,8.63
2023-05-08T06:51:03.770Z,8.88
2023-05-08T06:53:31.023Z,8.30
2023-05-08T06:55:58.914Z,9.63
2023-05-08T06:58:25.613Z,7.70
2023-05-08T07:00:52.808Z,7.45
2023-05-08T07:03:19.416Z,6.78
2023-05-08T07:05:46.518Z,6.45
2023-05-08T07:08:13.200Z,10.32
2023-05-08T07:10:39.871Z,9.48
2023-05-08T07:13:06.809Z,11.05
2023-05-08T07:15:33.614Z,8.70
2023-05-08T07:18:00.778Z,6.75
2023-05-08T07:20:27.926Z,10.05
2023-05-08T07:22:54.704Z,7.65
2023-05-08T07:25:21.328Z,6.95
2023-05-08T07:27:47.978Z,7.93
2023-05-08T07:30:15.106Z,7.35
2023-05-08T07:32:41.832Z,8.00
2023-05-08T07:35:11.309Z,6.68
2023-05-08T07:37:39.537Z,5.20
2023-05-08T07:40:06.846Z,6.60
2023-05-08T07:42:39.710Z,5.63
2023-05-08T07:45:08.857Z,6.95
2023-05-08T07:47:35.615Z,7.15
2023-05-08T07:50:03.508Z,7.25
2023-05-08T07:52:30.245Z,6.55
2023-05-08T07:54:56.912Z,7.15
2023-05-08T07:57:23.878Z,7.80
2023-05-08T07:59:50.673Z,7.75
2023-05-08T08:02:17.412Z,7.82
2023-05-08T08:04:44.124Z,5.40
2023-05-08T08:07:10.825Z,6.82
2023-05-08T08:09:37.441Z,8.25
2023-05-08T08:12:04.115Z,6.35
2023-05-08T08:14:30.762Z,7.28
2023-05-08T08:16:57.952Z,6.43
2023-05-08T08:19:24.762Z,6.25
2023-05-08T08:21:52.969Z,5.95
2023-05-08T08:24:19.840Z,5.63
2023-05-08T08:26:46.502Z,6.65
2023-05-08T08:29:13.319Z,7.97
2023-05-08T08:31:40.111Z,7.30
2023-05-08T08:34:07.699Z,7.35
2023-05-08T08:36:34.634Z,6.20
2023-05-08T08:39:01.804Z,8.07
2023-05-08T08:41:28.521Z,6.63
2023-05-08T08:43:55.534Z,7.25
2023-05-08T08:46:28.104Z,6.78
2023-05-08T08:48:56.562Z,7.30
2023-05-08T08:51:32.010Z,7.30
2023-05-08T08:54:10.255Z,7.30
2023-05-08T08:56:39.621Z,6.97
2023-05-08T08:59:07.486Z,6.43
2023-05-08T09:01:39.055Z,6.20
2023-05-08T09:04:06.100Z,7.47
2023-05-08T09:06:37.704Z,7.35
2023-05-08T09:09:05.615Z,6.25
2023-05-08T09:11:37.528Z,6.63
2023-05-08T09:14:11.129Z,7.10
2023-05-08T09:16:38.216Z,6.13
2023-05-08T09:19:04.928Z,6.18
2023-05-08T09:21:33.392Z,7.63
2023-05-08T09:24:04.929Z,7.47
2023-05-08T09:26:39.782Z,6.07
2023-05-08T09:29:16.181Z,9.25
2023-05-08T09:31:46.057Z,6.75
2023-05-08T09:34:24.816Z,7.00
2023-05-08T09:36:51.975Z,7.60
2023-05-08T09:39:26.050Z,7.20
2023-05-08T09:42:03.458Z,6.30
2023-05-08T09:44:45.241Z,8.38
2023-05-08T09:47:20.668Z,7.35
2023-05-08T09:50:02.856Z,7.53
2023-05-08T09:52:30.920Z,7.13
2023-05-08T09:54:59.404Z,8.13
2023-05-08T09:57:27.583Z,7.43
2023-05-08T10:00:12.415Z,6.82
2023-05-08T10:02:42.056Z,7.63
2023-05-08T10:05:32.945Z,7.45
2023-05-08T10:08:17.817Z,6.82
2023-05-08T10:10:44.615Z,6.72
2023-05-08T10:13:11.882Z,6.25
2023-05-08T10:15:41.988Z,7.15
2023-05-08T10:18:09.523Z,6.30
2023-05-08T10:20:45.160Z,5.95
2023-05-08T10:23:17.322Z,6.95
2023-05-08T10:25:46.676Z,6.60
2023-05-08T10:28:59.299Z,9.45
2023-05-08T10:31:28.578Z,7.30
2023-05-08T10:33:56.894Z,7.10
2023-05-08T10:36:24.207Z,6.43
2023-05-08T10:38:51.873Z,7.20
2023-05-08T10:41:19.607Z,6.30
2023-05-08T10:43:47.278Z,7.95
2023-05-08T10:46:26.754Z,7.20
2023-05-08T10:49:23.567Z,6.03
2023-05-08T10:52:12.451Z,5.97
2023-05-08T10:54:54.172Z,8.25
2023-05-08T10:57:21.534Z,8.50
2023-05-08T10:59:48.180Z,5.93
2023-05-08T11:02:28.754Z,7.85
2023-05-08T11:05:16.708Z,6.13
2023-05-08T11:07:54.989Z,9.70
2023-05-08T11:10:22.291Z,7.25
2023-05-08T11:12:51.372Z,9.27
2023-05-08T11:15:36.617Z,7.78
2023-05-08T11:18:06.015Z,9.40
2023-05-08T11:20:55.826Z,6.97
2023-05-08T11:23:29.479Z,7.45
2023-05-08T11:26:03.185Z,8.07
2023-05-08T11:28:38.023Z,7.72
2023-05-08T11:31:06.220Z,7.60
2023-05-08T11:33:34.702Z,8.05
2023-05-08T11:36:13.368Z,8.23
2023-05-08T11:38:41.475Z,7.18
2023-05-08T11:41:08.943Z,6.95
2023-05-08T11:43:38.580Z,8.55
2023-05-08T11:46:15.072Z,7.53
2023-05-08T11:48:42.274Z,7.80
2023-05-08T11:51:09.875Z,10.48
2023-05-08T11:53:37.708Z,8.63
2023-05-08T11:56:04.865Z,7.13
2023-05-08T11:58:31.713Z,7.50
2023-05-08T12:00:58.427Z,6.28
2023-05-08T12:03:25.891Z,7.97
2023-05-08T12:05:56.310Z,7.35
2023-05-08T12:08:23.250Z,8.70
2023-05-08T12:10:51.946Z,8.25
2023-05-08T12:13:23.483Z,8.52
2023-05-08T12:15:55.984Z,7.78
2023-05-08T12:18:24.017Z,7.97
2023-05-08T12:20:58.707Z,6.78
2023-05-08T12:23:27.049Z,6.65
2023-05-08T12:25:55.383Z,7.10
2023-05-08T12:28:23.060Z,7.40
2023-05-08T12:30:50.539Z,8.50
2023-05-08T12:33:18.690Z,7.53
2023-05-08T12:35:45.736Z,6.95
2023-05-08T12:38:12.438Z,6.75
2023-05-08T12:40:44.451Z,8.18
2023-05-08T12:43:11.914Z,9.48
2023-05-08T12:45:40.465Z,8.43
2023-05-08T12:48:12.131Z,8.65
2023-05-08T12:50:43.855Z,12.80
2023-05-08T12:53:12.322Z,18.38
2023-05-08T12:55:40.691Z,19.48
2023-05-08T12:58:15.712Z,11.10
2023-05-08T13:00:47.044Z,12.57
2023-05-08T13:03:28.853Z,14.60
2023-05-08T13:05:57.521Z,11.98
2023-05-08T13:08:38.866Z,11.93
2023-05-08T13:11:06.723Z,14.38
2023-05-08T13:13:35.366Z,13.68
2023-05-08T13:16:06.712Z,14.10
2023-05-08T13:18:36.223Z,12.90
2023-05-08T13:21:03.779Z,9.98
2023-05-08T13:23:30.656Z,13.23
2023-05-08T13:25:57.737Z,9.68
2023-05-08T13:28:24.439Z,10.90
2023-05-08T13:30:51.913Z,11.63
2023-05-08T13:33:18.530Z,13.20
2023-05-08T13:35:45.674Z,22.55
2023-05-08T13:38:12.423Z,12.88
2023-05-08T13:40:39.070Z,16.58
2023-05-08T13:43:05.759Z,16.67
2023-05-08T13:45:33.136Z,16.63
2023-05-08T13:47:59.989Z,15.15
2023-05-08T13:50:26.713Z,15.20
2023-05-08T13:52:54.916Z,25.45
2023-05-08T13:55:23.309Z,22.27
2023-05-08T13:57:50.931Z,20.75
2023-05-08T14:00:18.417Z,14.07
2023-05-08T14:02:45.371Z,10.68
2023-05-08T14:05:12.397Z,14.00
2023-05-08T14:07:39.350Z,13.45
2023-05-08T14:10:06.540Z,14.13
2023-05-08T14:12:36.516Z,13.60
2023-05-08T14:15:06.724Z,11.63
2023-05-08T14:17:33.781Z,10.85
2023-05-08T14:20:00.610Z,9.02
2023-05-08T14:22:27.312Z,17.10
2023-05-08T14:24:54.165Z,20.05
2023-05-08T14:27:20.974Z,20.95
2023-05-08T14:29:48.035Z,23.55
2023-05-08T14:32:14.649Z,21.70
2023-05-08T14:34:41.351Z,22.45
2023-05-08T14:37:08.049Z,15.93
2023-05-08T14:39:34.821Z,16.10
2023-05-08T14:42:21.528Z,18.83
2023-05-08T14:44:49.667Z,16.50
2023-05-08T14:47:16.430Z,12.88
2023-05-08T14:49:43.294Z,13.48
2023-05-08T14:52:10.854Z,13.50
2023-05-08T14:54:37.720Z,19.42
2023-05-08T14:57:04.699Z,17.23
2023-05-08T14:59:31.416Z,17.25
2023-05-08T15:01:58.081Z,15.63
2023-05-08T15:04:24.814Z,23.85
2023-05-08T15:06:51.588Z,19.02
2023-05-08T15:09:18.271Z,24.30
2023-05-08T15:11:44.945Z,18.17
2023-05-08T15:14:11.704Z,16.02
2023-05-08T15:16:38.479Z,17.20
2023-05-08T15:19:05.334Z,15.90
2023-05-08T15:21:34.897Z,17.70
2023-05-08T15:24:01.549Z,16.30
2023-05-08T15:26:28.147Z,14.23
2023-05-08T15:28:54.786Z,16.30
2023-05-08T15:31:21.499Z,16.80
2023-05-08T15:33:48.442Z,15.32
2023-05-08T15:36:15.639Z,15.90
2023-05-08T15:38:44.049Z,17.02
2023-05-08T15:41:15.164Z,15.85
2023-05-08T15:43:43.099Z,18.40
2023-05-08T15:46:10.136Z,21.23
2023-05-08T15:48:36.967Z,24.38
2023-05-08T15:51:03.780Z,19.02
2023-05-08T15:53:30.585Z,18.65
2023-05-08T15:55:57.477Z,21.30
2023-05-08T15:58:24.794Z,20.00
2023-05-08T16:00:51.842Z,21.85
2023-05-08T16:03:19.306Z,15.90
2023-05-08T16:05:46.296Z,14.32
2023-05-08T16:08:13.791Z,12.43
2023-05-08T16:10:41.436Z,14.75
2023-05-08T16:13:08.869Z,13.75
2023-05-08T16:15:35.759Z,24.30
2023-05-08T16:18:03.064Z,20.52
2023-05-08T16:20:30.564Z,20.75
2023-05-08T16:22:58.359Z,27.95
2023-05-08T16:25:25.853Z,25.85
2023-05-08T16:27:52.724Z,26.38
2023-05-08T16:30:19.707Z,27.80
2023-05-08T16:32:46.593Z,38.42
2023-05-08T16:35:14.072Z,45.05
2023-05-08T16:37:41.063Z,46.20
2023-05-08T16:40:08.896Z,34.40
2023-05-08T16:42:36.253Z,30.25
2023-05-08T16:45:04.736Z,27.50
2023-05-08T16:47:31.450Z,25.33
2023-05-08T16:49:58.408Z,34.03
2023-05-08T16:52:25.105Z,26.13
2023-05-08T16:54:52.241Z,23.48
2023-05-08T16:57:19.416Z,22.38
2023-05-08T16:59:46.053Z,27.30
2023-05-08T17:02:18.543Z,23.80
2023-05-08T17:04:47.332Z,38.42
2023-05-08T17:07:15.317Z,44.42
2023-05-08T17:09:42.100Z,41.45
2023-05-08T17:12:09.247Z,36.05
2023-05-08T17:14:39.257Z,28.92
2023-05-08T17:17:06.502Z,36.42
2023-05-08T17:19:33.250Z,29.52
2023-05-08T17:22:00.204Z,26.38
2023-05-08T17:24:27.260Z,14.35
2023-05-08T17:26:54.018Z,20.20
2023-05-08T17:29:20.754Z,12.32
2023-05-08T17:31:48.106Z,17.13
2023-05-08T17:34:14.864Z,16.58
2023-05-08T17:36:41.598Z,44.70
2023-05-08T17:39:08.540Z,30.75
2023-05-08T17:41:35.405Z,28.65
2023-05-08T17:44:02.055Z,48.85
2023-05-08T17:46:28.716Z,24.80
2023-05-08T17:48:55.492Z,33.67
2023-05-08T17:51:22.213Z,20.33
2023-05-08T17:53:48.887Z,18.08
2023-05-08T17:56:20.416Z,12.73
2023-05-08T17:58:47.170Z,24.20
2023-05-08T18:01:13.896Z,19.35
2023-05-08T18:03:41.212Z,15.90
2023-05-08T18:06:08.172Z,37.97
2023-05-08T18:08:34.874Z,33.13
2023-05-08T18:11:01.804Z,22.80
2023-05-08T18:13:28.498Z,20.88
2023-05-08T18:15:55.577Z,19.05
2023-05-08T18:18:22.277Z,19.27
2023-05-08T18:20:48.984Z,18.42
2023-05-08T18:23:16.229Z,22.02
2023-05-08T18:25:42.957Z,22.30
2023-05-08T18:28:09.662Z,17.42
2023-05-08T18:30:38.218Z,14.70
2023-05-08T18:33:06.313Z,11.23
2023-05-08T18:35:32.996Z,25.05
2023-05-08T18:37:59.625Z,15.10
2023-05-08T18:40:26.383Z,16.02
2023-05-08T18:42:52.966Z,16.35
2023-05-08T18:45:19.831Z,12.98
2023-05-08T18:47:46.628Z,14.13
2023-05-08T18:50:13.513Z,18.70
2023-05-08T18:52:40.894Z,12.05
2023-05-08T18:55:08.040Z,25.73
2023-05-08T18:57:34.705Z,14.20
2023-05-08T19:00:01.402Z,19.67
2023-05-08T19:02:28.269Z,16.42
2023-05-08T19:04:54.972Z,59.22
2023-05-08T19:07:21.594Z,60.40
2023-05-08T19:09:48.323Z,43.08
2023-05-08T19:12:15.081Z,18.98
2023-05-08T19:14:49.132Z,17.70
2023-05-08T19:17:16.021Z,26.30
2023-05-08T19:19:42.703Z,33.55
2023-05-08T19:22:09.548Z,33.10
2023-05-08T19:24:36.376Z,31.58
2023-05-08T19:27:03.005Z,26.50
2023-05-08T19:29:29.799Z,30.20
2023-05-08T19:31:56.667Z,29.73
2023-05-08T19:34:23.932Z,33.25
2023-05-08T19:36:51.415Z,36.97
2023-05-08T19:39:18.125Z,37.78
2023-05-08T19:41:45.080Z,45.88
2023-05-08T19:44:11.930Z,29.70
2023-05-08T19:46:39.075Z,28.35
2023-05-08T19:49:05.980Z,27.00
2023-05-08T19:51:33.170Z,25.00
2023-05-08T19:53:59.867Z,24.02
2023-05-08T19:56:26.536Z,33.47
2023-05-08T19:58:53.342Z,24.33
2023-05-08T20:01:20.053Z,20.70
2023-05-08T20:03:46.950Z,16.75
2023-05-08T20:06:13.967Z,19.15
2023-05-08T20:08:40.627Z,31.70
2023-05-08T20:11:09.429Z,21.38
2023-05-08T20:13:36.142Z,23.67
2023-05-08T20:16:02.847Z,20.65
2023-05-08T20:18:29.584Z,22.25
2023-05-08T20:20:56.757Z,18.58
2023-05-08T20:23:23.471Z,19.73
2023-05-08T20:25:50.124Z,17.33
2023-05-08T20:28:22.271Z,17.88
2023-05-08T20:30:49.717Z,18.00
2023-05-08T20:33:16.749Z,14.52
2023-05-08T20:35:43.445Z,11.27
2023-05-08T20:38:10.130Z,11.95
2023-05-08T20:40:37.174Z,18.30
2023-05-08T20:43:03.899Z,19.38
2023-05-08T20:45:30.596Z,17.83
2023-05-08T20:47:57.396Z,16.92
2023-05-08T20:50:24.458Z,19.55
2023-05-08T20:52:51.814Z,18.23
2023-05-08T20:55:18.632Z,19.25
2023-05-08T20:57:45.326Z,20.58
2023-05-08T21:00:12.507Z,21.55
2023-05-08T21:02:41.311Z,41.88
2023-05-08T21:05:09.255Z,26.63
2023-05-08T21:07:36.257Z,35.83
2023-05-08T21:10:04.387Z,17.83
2023-05-08T21:12:31.102Z,15.60
2023-05-08T21:14:57.720Z,17.50
2023-05-08T21:17:24.391Z,19.05
2023-05-08T21:19:51.182Z,19.13
2023-05-08T21:22:17.983Z,16.92
2023-05-08T21:24:44.717Z,17.60
2023-05-08T21:27:11.466Z,19.45
2023-05-08T21:29:38.405Z,18.20
2023-05-08T21:32:05.996Z,19.70
2023-05-08T21:34:33.673Z,17.08
2023-05-08T21:37:00.536Z,19.52
2023-05-08T21:39:27.170Z,17.63
2023-05-08T21:41:53.922Z,15.75
2023-05-08T21:44:20.883Z,16.33
2023-05-08T21:46:47.601Z,15.38
2023-05-08T21:49:14.378Z,15.68
2023-05-08T21:51:41.066Z,15.45
2023-05-08T21:54:09.020Z,13.20
2023-05-08T21:56:35.726Z,12.35
2023-05-08T21:59:02.377Z,8.82
2023-05-08T22:01:29.736Z,9.15
2023-05-08T22:03:56.705Z,8.70
2023-05-08T22:06:23.548Z,9.23
2023-05-08T22:08:50.321Z,10.15
2023-05-08T22:11:17.072Z,9.25
2023-05-08T22:13:43.734Z,7.50
2023-05-08T22:16:10.495Z,8.43
2023-05-08T22:18:37.244Z,6.65
2023-05-08T22:21:04.135Z,8.90
2023-05-08T22:23:30.785Z,6.63
2023-05-08T22:25:57.549Z,9.02
2023-05-08T22:28:24.181Z,8.23
2023-05-08T22:30:50.815Z,9.48
2023-05-08T22:33:17.498Z,9.80
2023-05-08T22:35:44.198Z,8.90
2023-05-08T22:38:10.802Z,10.27
2023-05-08T22:40:37.578Z,16.17
2023-05-08T22:43:04.330Z,13.18
2023-05-08T22:45:32.275Z,13.77
2023-05-08T22:47:59.350Z,13.30
2023-05-08T22:50:26.158Z,11.45
2023-05-08T22:52:52.834Z,12.93
2023-05-08T22:55:19.536Z,11.48
2023-05-08T22:57:46.194Z,11.63
2023-05-08T23:00:13.293Z,9.98
2023-05-08T23:02:40.139Z,12.30
2023-05-08T23:05:07.661Z,10.65
2023-05-08T23:07:34.301Z,10.43
2023-05-08T23:10:00.940Z,13.82
2023-05-08T23:12:27.621Z,12.20
2023-05-08T23:14:54.269Z,13.57
2023-05-08T23:17:21.117Z,13.27
2023-05-08T23:19:47.908Z,12.85
2023-05-08T23:22:14.563Z,13.95
2023-05-08T23:24:41.380Z,14.57
2023-05-08T23:27:08.130Z,13.88
2023-05-08T23:29:34.762Z,13.18
2023-05-08T23:32:01.403Z,13.65
2023-05-08T23:34:28.064Z,12.68
2023-05-08T23:36:54.705Z,13.27
2023-05-08T23:39:21.404Z,10.88
2023-05-08T23:41:48.082Z,13.93
2023-05-08T23:44:15.488Z,12.82
2023-05-08T23:46:42.588Z,12.70
2023-05-08T23:49:09.300Z,10.75
2023-05-08T23:51:35.994Z,12.25
2023-05-08T23:54:03.386Z,11.77
2023-05-08T23:56:30.914Z,12.05
2023-05-08T23:58:57.561Z,12.05
